createdAt,value
2023-04-25T00:01:20.264Z,4.22
2023-04-25T00:03:55.400Z,4.05
2023-04-25T00:06:29.891Z,3.55
2023-04-25T00:09:00.895Z,4.07
2023-04-25T00:11:32.180Z,4.00
2023-04-25T00:14:03.091Z,3.45
2023-04-25T00:16:35.242Z,3.10
2023-04-25T00:19:05.464Z,3.38
2023-04-25T00:21:36.725Z,3.38
2023-04-25T00:24:06.505Z,3.47
2023-04-25T00:26:37.566Z,5.05
2023-04-25T00:29:07.013Z,2.70
2023-04-25T00:31:36.645Z,4.13
2023-04-25T00:34:06.033Z,2.95
2023-04-25T00:36:37.443Z,2.78
2023-04-25T00:39:07.654Z,3.03
2023-04-25T00:41:37.127Z,3.30
2023-04-25T00:44:08.002Z,2.58
2023-04-25T00:46:38.265Z,2.95
2023-04-25T00:49:07.940Z,3.35
2023-04-25T00:51:39.480Z,2.72
2023-04-25T00:54:08.984Z,3.28
2023-04-25T00:56:38.864Z,6.30
2023-04-25T00:59:08.329Z,3.38
2023-04-25T01:01:39.247Z,3.10
2023-04-25T01:04:09.536Z,2.45
2023-04-25T01:06:40.704Z,2.80
2023-04-25T01:09:10.726Z,3.15
2023-04-25T01:11:41.364Z,2.55
2023-04-25T01:14:11.123Z,3.00
2023-04-25T01:16:40.467Z,3.35
2023-04-25T01:19:13.547Z,3.58
2023-04-25T01:21:44.403Z,2.97
2023-04-25T01:24:14.703Z,2.53
2023-04-25T01:26:50.838Z,3.30
2023-04-25T01:29:26.533Z,4.18
2023-04-25T01:31:57.180Z,3.47
2023-04-25T01:34:27.146Z,3.55
2023-04-25T01:36:58.132Z,3.17
2023-04-25T01:39:28.842Z,3.22
2023-04-25T01:41:59.078Z,3.78
2023-04-25T01:44:28.801Z,3.60
2023-04-25T01:46:58.279Z,3.47
2023-04-25T01:49:29.025Z,3.03
2023-04-25T01:51:59.868Z,2.72
2023-04-25T01:54:29.495Z,3.92
2023-04-25T01:57:01.184Z,3.83
2023-04-25T01:59:30.742Z,3.05
2023-04-25T02:02:08.397Z,3.55
2023-04-25T02:04:39.228Z,5.22
2023-04-25T02:07:11.182Z,3.15
2023-04-25T02:09:51.960Z,4.07
2023-04-25T02:12:27.384Z,4.85
2023-04-25T02:15:15.384Z,4.40
2023-04-25T02:17:53.937Z,3.83
2023-04-25T02:20:24.784Z,3.13
2023-04-25T02:22:56.321Z,3.43
2023-04-25T02:25:26.161Z,3.03
2023-04-25T02:27:56.230Z,4.05
2023-04-25T02:30:25.630Z,3.70
2023-04-25T02:32:55.408Z,4.20
2023-04-25T02:35:25.155Z,4.00
2023-04-25T02:37:58.428Z,3.92
2023-04-25T02:40:28.255Z,3.30
2023-04-25T02:42:57.781Z,3.80
2023-04-25T02:45:29.437Z,3.80
2023-04-25T02:47:59.076Z,3.92
2023-04-25T02:50:28.864Z,4.30
2023-04-25T02:52:59.589Z,4.43
2023-04-25T02:55:33.850Z,3.80
2023-04-25T02:58:05.632Z,3.95
2023-04-25T03:00:50.261Z,3.70
2023-04-25T03:03:22.989Z,4.22
2023-04-25T03:05:54.890Z,3.85
2023-04-25T03:08:33.686Z,4.30
2023-04-25T03:11:03.810Z,4.00
2023-04-25T03:13:33.003Z,3.97
2023-04-25T03:16:02.358Z,4.00
2023-04-25T03:18:32.729Z,3.97
2023-04-25T03:21:03.635Z,4.70
2023-04-25T03:23:35.601Z,4.13
2023-04-25T03:26:05.343Z,4.55
2023-04-25T03:28:34.485Z,4.43
2023-04-25T03:31:03.793Z,4.38
2023-04-25T03:33:32.959Z,4.20
2023-04-25T03:36:02.257Z,4.85
2023-04-25T03:38:32.476Z,4.70
2023-04-25T03:41:03.991Z,4.28
2023-04-25T03:43:55.849Z,4.97
2023-04-25T03:46:25.362Z,4.60
2023-04-25T03:48:54.878Z,4.70
2023-04-25T03:51:29.134Z,3.97
2023-04-25T03:53:58.403Z,5.72
2023-04-25T03:56:35.154Z,4.07
2023-04-25T03:59:13.771Z,4.20
2023-04-25T04:01:43.074Z,4.72
2023-04-25T04:04:12.431Z,5.13
2023-04-25T04:06:41.921Z,4.70
2023-04-25T04:09:16.716Z,5.03
2023-04-25T04:11:49.030Z,3.85
2023-04-25T04:14:18.536Z,4.40
2023-04-25T04:16:49.517Z,5.03
2023-04-25T04:19:18.775Z,6.15
2023-04-25T04:21:55.344Z,4.30
2023-04-25T04:24:25.116Z,4.80
2023-04-25T04:27:01.275Z,4.65
2023-04-25T04:29:51.396Z,3.88
2023-04-25T04:32:35.815Z,4.30
2023-04-25T04:35:07.760Z,4.40
2023-04-25T04:37:37.906Z,3.60
2023-04-25T04:40:10.507Z,4.28
2023-04-25T04:42:54.330Z,4.72
2023-04-25T04:45:41.859Z,5.03
2023-04-25T04:48:22.658Z,4.60
2023-04-25T04:51:35.959Z,5.00
2023-04-25T04:54:18.915Z,4.55
2023-04-25T04:57:06.435Z,4.15
2023-04-25T04:59:48.025Z,4.68
2023-04-25T05:02:49.859Z,4.10
2023-04-25T05:05:41.084Z,3.40
2023-04-25T05:08:30.533Z,4.25
2023-04-25T05:11:19.225Z,3.45
2023-04-25T05:14:06.273Z,4.22
2023-04-25T05:22:06.343Z,4.72
2023-04-25T05:25:53.644Z,4.60
2023-04-25T05:28:33.484Z,5.60
2023-04-25T05:31:32.943Z,4.97
2023-04-25T05:37:27.616Z,4.32
2023-04-25T05:41:16.533Z,5.07
2023-04-25T05:44:56.089Z,5.97
2023-04-25T05:48:55.694Z,4.32
2023-04-25T05:51:57.221Z,4.25
2023-04-25T05:54:44.580Z,4.53
2023-04-25T05:57:23.035Z,5.10
2023-04-25T05:59:52.145Z,4.07
2023-04-25T06:02:23.173Z,4.97
2023-04-25T06:04:54.201Z,4.03
2023-04-25T06:07:34.063Z,4.93
2023-04-25T06:10:13.969Z,4.50
2023-04-25T06:12:50.533Z,5.50
2023-04-25T06:15:27.897Z,4.70
2023-04-25T06:18:01.869Z,6.03
2023-04-25T06:20:50.373Z,5.60
2023-04-25T06:30:30.373Z,5.55
2023-04-25T06:33:21.137Z,5.30
2023-04-25T06:35:58.362Z,4.32
2023-04-25T06:38:32.984Z,6.07
2023-04-25T06:41:19.953Z,5.30
2023-04-25T06:43:53.249Z,5.53
2023-04-25T06:46:40.787Z,5.97
2023-04-25T06:49:10.004Z,5.10
2023-04-25T06:51:41.368Z,5.20
2023-04-25T06:54:28.219Z,6.47
2023-04-25T06:57:06.570Z,5.68
2023-04-25T06:59:36.126Z,5.88
2023-04-25T07:02:07.181Z,5.88
2023-04-25T07:04:36.544Z,6.55
2023-04-25T07:07:05.727Z,5.82
2023-04-25T07:09:43.218Z,7.00
2023-04-25T07:12:15.207Z,6.00
2023-04-25T07:14:45.165Z,5.50
2023-04-25T07:17:15.150Z,5.97
2023-04-25T07:19:50.868Z,5.10
2023-04-25T07:22:20.115Z,4.13
2023-04-25T07:24:51.466Z,3.85
2023-04-25T07:27:23.756Z,5.45
2023-04-25T07:29:58.707Z,4.68
2023-04-25T07:32:29.129Z,4.80
2023-04-25T07:35:00.032Z,5.35
2023-04-25T07:37:30.273Z,3.88
2023-04-25T07:40:28.033Z,4.90
2023-04-25T07:43:23.779Z,5.13
2023-04-25T07:46:05.955Z,6.43
2023-04-25T07:48:57.701Z,4.68
2023-04-25T07:51:31.070Z,4.65
2023-04-25T07:54:03.754Z,4.15
2023-04-25T07:56:49.170Z,4.75
2023-04-25T07:59:22.731Z,3.53
2023-04-25T08:01:52.069Z,4.55
2023-04-25T08:04:23.901Z,5.03
2023-04-25T08:07:02.264Z,4.80
2023-04-25T08:09:36.492Z,3.43
2023-04-25T08:12:10.276Z,4.78
2023-04-25T08:14:42.160Z,4.97
2023-04-25T08:17:12.350Z,3.97
2023-04-25T08:19:45.849Z,3.40
2023-04-25T08:22:24.525Z,4.88
2023-04-25T08:25:15.145Z,4.68
2023-04-25T08:27:47.955Z,3.97
2023-04-25T08:30:19.254Z,4.30
2023-04-25T08:32:48.966Z,5.57
2023-04-25T08:35:51.053Z,3.90
2023-04-25T08:38:20.860Z,4.37
2023-04-25T08:40:53.413Z,4.07
2023-04-25T08:43:28.991Z,3.80
2023-04-25T08:46:01.980Z,4.87
2023-04-25T08:49:01.014Z,3.45
2023-04-25T08:51:33.229Z,3.57
2023-04-25T08:54:28.061Z,3.83
2023-04-25T08:57:05.513Z,3.50
2023-04-25T08:59:39.241Z,2.93
2023-04-25T09:02:15.769Z,3.30
2023-04-25T09:04:46.722Z,2.80
2023-04-25T09:07:22.089Z,2.20
2023-04-25T09:09:53.199Z,4.07
2023-04-25T09:12:31.976Z,3.73
2023-04-25T09:15:11.536Z,4.25
2023-04-25T09:17:57.116Z,4.10
2023-04-25T09:20:28.354Z,3.80
2023-04-25T09:23:20.908Z,3.30
2023-04-25T09:25:58.244Z,3.00
2023-04-25T09:28:30.841Z,3.90
2023-04-25T09:31:07.189Z,4.90
2023-04-25T09:33:46.604Z,2.87
2023-04-25T09:36:20.764Z,3.93
2023-04-25T09:39:26.833Z,2.50
2023-04-25T09:42:07.273Z,3.03
2023-04-25T09:44:46.935Z,2.20
2023-04-25T09:47:25.242Z,2.63
2023-04-25T09:49:59.499Z,3.07
2023-04-25T09:52:32.447Z,3.20
2023-04-25T09:55:25.756Z,3.00
2023-04-25T09:58:04.563Z,3.27
2023-04-25T10:00:37.537Z,2.10
2023-04-25T10:03:25.036Z,2.50
2023-04-25T10:06:24.615Z,2.77
2023-04-25T10:08:59.546Z,2.10
2023-04-25T10:11:34.222Z,2.53
2023-04-25T10:14:14.443Z,3.10
2023-04-25T10:16:46.593Z,3.43
2023-04-25T10:19:25.853Z,2.37
2023-04-25T10:21:58.610Z,3.37
2023-04-25T10:24:29.571Z,3.63
2023-04-25T10:26:59.748Z,3.03
2023-04-25T10:29:29.678Z,2.10
2023-04-25T10:31:59.137Z,2.80
2023-04-25T10:34:42.002Z,4.07
2023-04-25T10:37:14.419Z,2.50
2023-04-25T10:39:45.083Z,3.47
2023-04-25T10:42:15.074Z,2.90
2023-04-25T10:45:02.743Z,3.23
2023-04-25T10:47:38.965Z,2.20
2023-04-25T10:50:11.375Z,2.23
2023-04-25T10:52:42.160Z,2.70
2023-04-25T10:55:11.506Z,2.33
2023-04-25T10:57:42.037Z,2.40
2023-04-25T11:00:25.877Z,3.03
2023-04-25T11:03:02.368Z,2.70
2023-04-25T11:05:43.982Z,3.50
2023-04-25T11:08:35.130Z,3.03
2023-04-25T11:11:04.672Z,3.03
2023-04-25T11:13:33.830Z,2.73
2023-04-25T11:16:12.187Z,2.30
2023-04-25T11:18:44.712Z,2.83
2023-04-25T11:21:15.864Z,2.63
2023-04-25T11:23:47.995Z,2.87
2023-04-25T11:26:17.417Z,3.30
2023-04-25T11:28:48.380Z,2.03
2023-04-25T11:31:17.957Z,2.10
2023-04-25T11:33:47.364Z,2.60
2023-04-25T11:36:18.288Z,2.20
2023-04-25T11:38:47.779Z,2.30
2023-04-25T11:41:17.220Z,2.77
2023-04-25T11:43:46.476Z,2.57
2023-04-25T11:46:16.389Z,2.63
2023-04-25T11:48:46.583Z,2.57
2023-04-25T11:51:17.320Z,1.87
2023-04-25T11:53:48.090Z,2.33
2023-04-25T11:56:17.271Z,3.10
2023-04-25T11:59:03.986Z,2.07
2023-04-25T12:01:35.910Z,1.93
2023-04-25T12:04:16.627Z,2.50
2023-04-25T12:06:49.928Z,1.93
2023-04-25T12:09:22.530Z,2.57
2023-04-25T12:11:57.744Z,3.07
2023-04-25T12:14:29.328Z,2.50
2023-04-25T12:17:02.508Z,1.80
2023-04-25T12:19:36.448Z,1.80
2023-04-25T12:22:20.977Z,1.67
2023-04-25T12:24:50.320Z,2.60
2023-04-25T12:27:20.457Z,2.60
2023-04-25T12:29:57.986Z,2.60
2023-04-25T12:32:27.619Z,2.30
2023-04-25T12:34:57.189Z,2.27
2023-04-25T12:37:27.624Z,2.23
2023-04-25T12:39:57.033Z,2.43
2023-04-25T12:42:26.338Z,1.93
2023-04-25T12:44:55.670Z,2.37
2023-04-25T12:47:24.974Z,2.57
2023-04-25T12:49:54.125Z,2.03
2023-04-25T12:52:23.119Z,2.27
2023-04-25T12:54:54.238Z,2.00
2023-04-25T12:57:23.611Z,2.17
2023-04-25T12:59:52.855Z,2.33
2023-04-25T13:02:22.539Z,1.80
2023-04-25T13:04:52.749Z,3.93
2023-04-25T13:07:21.831Z,1.50
2023-04-25T13:09:52.407Z,1.87
2023-04-25T13:12:21.554Z,2.77
2023-04-25T13:14:50.599Z,2.83
2023-04-25T13:17:19.827Z,1.93
2023-04-25T13:19:49.887Z,2.60
2023-04-25T13:22:21.303Z,2.30
2023-04-25T13:24:50.394Z,1.70
2023-04-25T13:27:21.003Z,3.00
2023-04-25T13:29:50.037Z,1.57
2023-04-25T13:32:19.297Z,2.37
2023-04-25T13:34:48.938Z,1.73
2023-04-25T13:37:17.962Z,2.63
2023-04-25T13:39:47.150Z,2.10
2023-04-25T13:42:17.042Z,2.67
2023-04-25T13:44:47.595Z,2.47
2023-04-25T13:47:17.482Z,2.13
2023-04-25T13:49:46.796Z,2.40
2023-04-25T13:52:15.981Z,2.17
2023-04-25T13:54:45.842Z,2.17
2023-04-25T13:57:15.411Z,2.30
2023-04-25T13:59:44.502Z,2.10
2023-04-25T14:02:17.746Z,3.60
2023-04-25T14:04:56.960Z,1.60
2023-04-25T14:11:14.211Z,2.90
2023-04-25T14:13:49.517Z,2.07
2023-04-25T14:16:23.238Z,2.03
2023-04-25T14:18:55.395Z,2.03
2023-04-25T14:21:24.473Z,1.83
2023-04-25T14:23:53.768Z,2.00
2023-04-25T14:26:23.354Z,2.20
2023-04-25T14:28:52.297Z,1.67
2023-04-25T14:31:22.082Z,1.77
2023-04-25T14:33:52.872Z,2.30
2023-04-25T14:36:22.265Z,1.77
2023-04-25T14:38:51.148Z,2.67
2023-04-25T14:41:20.010Z,2.03
2023-04-25T14:43:49.299Z,2.13
2023-04-25T14:46:18.524Z,2.17
2023-04-25T14:48:48.658Z,1.83
2023-04-25T14:51:19.151Z,2.67
2023-04-25T14:53:48.123Z,1.90
2023-04-25T14:56:17.080Z,2.10
2023-04-25T14:58:46.610Z,1.87
2023-04-25T15:01:16.424Z,2.67
2023-04-25T15:03:45.761Z,2.50
2023-04-25T15:06:15.220Z,1.93
2023-04-25T15:08:45.608Z,1.80
2023-04-25T15:11:14.619Z,1.40
2023-04-25T15:13:43.757Z,1.47
2023-04-25T15:16:12.772Z,2.20
2023-04-25T15:18:42.188Z,1.73
2023-04-25T15:21:11.327Z,1.23
2023-04-25T15:23:40.478Z,1.83
2023-04-25T15:26:11.821Z,1.20
2023-04-25T15:28:40.834Z,1.10
2023-04-25T15:31:10.112Z,1.37
2023-04-25T15:33:46.174Z,1.53
2023-04-25T15:36:17.470Z,1.20
2023-04-25T15:38:46.615Z,1.60
2023-04-25T15:41:17.042Z,1.20
2023-04-25T15:43:46.282Z,1.13
2023-04-25T15:46:15.579Z,1.03
2023-04-25T15:48:44.685Z,1.67
2023-04-25T15:51:13.670Z,2.00
2023-04-25T15:53:43.071Z,1.23
2023-04-25T15:56:12.325Z,1.47
2023-04-25T15:58:42.681Z,1.60
2023-04-25T16:01:12.137Z,1.60
2023-04-25T16:03:41.572Z,1.77
2023-04-25T16:06:11.002Z,2.23
2023-04-25T16:08:40.131Z,1.30
2023-04-25T16:11:09.392Z,1.37
2023-04-25T16:13:38.406Z,1.77
2023-04-25T16:16:09.163Z,1.30
2023-04-25T16:18:38.236Z,2.00
2023-04-25T16:21:07.412Z,0.90
2023-04-25T16:23:36.494Z,3.13
2023-04-25T16:26:05.699Z,1.53
2023-04-25T16:28:34.667Z,1.10
2023-04-25T16:31:04.068Z,1.57
2023-04-25T16:33:35.697Z,1.27
2023-04-25T16:36:05.138Z,1.17
2023-04-25T16:38:34.078Z,1.50
2023-04-25T16:41:03.329Z,1.87
2023-04-25T16:43:33.087Z,1.43
2023-04-25T16:46:02.870Z,1.60
2023-04-25T16:48:32.283Z,1.80
2023-04-25T16:51:03.018Z,1.03
2023-04-25T16:53:32.082Z,1.43
2023-04-25T16:56:01.208Z,1.60
2023-04-25T16:58:30.383Z,1.83
2023-04-25T17:00:59.417Z,1.33
2023-04-25T17:03:28.582Z,1.33
2023-04-25T17:05:58.121Z,1.60
2023-04-25T17:08:29.483Z,1.20
2023-04-25T17:10:59.913Z,1.20
2023-04-25T17:13:31.008Z,1.60
2023-04-25T17:16:01.204Z,1.10
2023-04-25T17:18:30.159Z,1.50
2023-04-25T17:20:59.188Z,1.70
2023-04-25T17:23:31.602Z,1.30
2023-04-25T17:26:01.165Z,1.60
2023-04-25T17:28:30.256Z,1.50
2023-04-25T17:31:00.074Z,1.50
2023-04-25T17:33:29.017Z,1.80
2023-04-25T17:35:58.091Z,1.50
2023-04-25T17:38:28.551Z,1.10
2023-04-25T17:40:57.591Z,1.60
2023-04-25T17:43:27.626Z,0.97
2023-04-25T17:45:57.023Z,1.60
2023-04-25T17:48:26.062Z,1.42
2023-04-25T17:50:54.952Z,1.83
2023-04-25T17:53:24.729Z,1.30
2023-04-25T17:55:56.327Z,1.73
2023-04-25T17:58:25.211Z,1.60
2023-04-25T18:00:54.128Z,1.48
2023-04-25T18:03:23.464Z,2.53
2023-04-25T18:05:52.577Z,2.38
2023-04-25T18:08:22.684Z,1.73
2023-04-25T18:10:51.797Z,1.73
2023-04-25T18:13:22.186Z,2.35
2023-04-25T18:15:51.823Z,1.70
2023-04-25T18:18:25.391Z,2.05
2023-04-25T18:20:55.370Z,1.70
2023-04-25T18:23:24.345Z,1.63
2023-04-25T18:25:54.197Z,1.63
2023-04-25T18:28:24.573Z,2.80
2023-04-25T18:30:54.382Z,2.25
2023-04-25T18:33:23.445Z,3.90
2023-04-25T18:38:35.702Z,2.85
2023-04-25T18:41:18.363Z,2.90
2023-04-25T18:43:58.850Z,3.08
2023-04-25T18:46:28.322Z,2.38
2023-04-25T18:48:57.672Z,3.25
2023-04-25T18:51:29.578Z,2.53
2023-04-25T18:53:59.010Z,3.42
2023-04-25T18:56:28.940Z,3.08
2023-04-25T18:58:59.497Z,2.70
2023-04-25T19:01:28.532Z,1.92
2023-04-25T19:03:58.479Z,2.45
2023-04-25T19:06:29.766Z,1.50
2023-04-25T19:08:59.095Z,1.30
2023-04-25T19:11:28.152Z,2.10
2023-04-25T19:14:31.073Z,1.70
2023-04-25T19:17:05.873Z,1.85
2023-04-25T19:19:35.405Z,1.83
2023-04-25T19:22:04.462Z,1.70
2023-04-25T19:24:34.590Z,1.70
2023-04-25T19:27:04.320Z,2.05
2023-04-25T19:29:34.644Z,1.67
2023-04-25T19:32:03.703Z,1.58
2023-04-25T19:34:32.652Z,3.70
2023-04-25T19:37:01.725Z,2.05
2023-04-25T19:39:30.828Z,1.42
2023-04-25T19:42:01.535Z,2.40
2023-04-25T19:44:30.528Z,1.90
2023-04-25T19:47:02.038Z,1.65
2023-04-25T19:49:31.274Z,2.00
2023-04-25T19:52:00.349Z,2.25
2023-04-25T19:54:29.324Z,2.00
2023-04-25T19:56:58.919Z,1.20
2023-04-25T19:59:27.947Z,1.92
2023-04-25T20:01:57.362Z,2.30
2023-04-25T20:04:27.974Z,3.47
2023-04-25T20:06:58.266Z,4.05
2023-04-25T20:09:27.382Z,6.50
2023-04-25T20:11:56.593Z,2.00
2023-04-25T20:14:26.382Z,1.75
2023-04-25T20:16:55.776Z,2.50
2023-04-25T20:19:26.457Z,2.50
2023-04-25T20:21:57.011Z,3.88
2023-04-25T20:24:26.143Z,3.28
2023-04-25T20:26:56.520Z,2.65
2023-04-25T20:29:28.940Z,1.85
2023-04-25T20:31:58.239Z,1.90
2023-04-25T20:34:30.106Z,1.35
2023-04-25T20:36:59.352Z,2.15
2023-04-25T20:39:28.577Z,2.00
2023-04-25T20:41:58.052Z,2.25
2023-04-25T20:44:27.024Z,1.67
2023-04-25T20:46:56.497Z,2.22
2023-04-25T20:49:25.580Z,1.83
2023-04-25T20:51:55.929Z,1.70
2023-04-25T20:54:27.089Z,2.95
2023-04-25T20:56:56.094Z,2.78
2023-04-25T20:59:25.527Z,1.92
2023-04-25T21:01:55.857Z,1.92
2023-04-25T21:04:25.366Z,2.45
2023-04-25T21:06:55.961Z,4.72
2023-04-25T21:09:25.053Z,2.15
2023-04-25T21:11:54.227Z,2.63
2023-04-25T21:14:25.484Z,2.92
2023-04-25T21:16:54.526Z,3.05
2023-04-25T21:19:23.531Z,2.13
2023-04-25T21:21:52.671Z,2.42
2023-04-25T21:24:22.881Z,2.55
2023-04-25T21:26:52.136Z,1.83
2023-04-25T21:29:21.162Z,2.70
2023-04-25T21:31:51.006Z,2.88
2023-04-25T21:34:20.374Z,1.65
2023-04-25T21:36:49.615Z,1.70
2023-04-25T21:39:20.350Z,2.28
2023-04-25T21:42:06.369Z,2.15
2023-04-25T21:44:36.419Z,2.30
2023-04-25T21:47:05.770Z,2.85
2023-04-25T21:49:34.896Z,2.10
2023-04-25T21:52:03.984Z,1.65
2023-04-25T21:54:34.430Z,1.92
2023-04-25T21:57:05.580Z,1.58
2023-04-25T21:59:36.116Z,1.70
2023-04-25T22:02:05.675Z,1.45
2023-04-25T22:04:35.689Z,2.30
2023-04-25T22:07:05.000Z,4.72
2023-04-25T22:09:43.847Z,1.55
2023-04-25T22:12:22.846Z,1.92
2023-04-25T22:15:45.286Z,1.67
2023-04-25T22:18:14.430Z,2.00
2023-04-25T22:20:46.616Z,1.75
2023-04-25T22:23:15.783Z,2.72
2023-04-25T22:25:44.914Z,2.13
2023-04-25T22:28:15.581Z,2.42
2023-04-25T22:30:44.884Z,1.60
2023-04-25T22:33:14.054Z,1.63
2023-04-25T22:35:43.106Z,1.70
2023-04-25T22:38:12.313Z,2.25
2023-04-25T22:40:41.346Z,1.60
2023-04-25T22:43:10.633Z,1.98
2023-04-25T22:45:41.045Z,1.58
2023-04-25T22:48:10.215Z,1.50
2023-04-25T22:50:40.974Z,2.78
2023-04-25T22:53:10.371Z,1.88
2023-04-25T22:55:40.908Z,3.28
2023-04-25T22:58:12.835Z,2.00
2023-04-25T23:00:43.679Z,1.95
2023-04-25T23:03:12.887Z,2.40
2023-04-25T23:05:42.251Z,2.45
2023-04-25T23:08:11.239Z,1.75
2023-04-25T23:10:40.190Z,1.90
2023-04-25T23:13:09.245Z,1.65
2023-04-25T23:15:38.375Z,2.45
2023-04-25T23:18:09.071Z,2.13
2023-04-25T23:20:38.336Z,1.95
2023-04-25T23:23:07.581Z,1.52
2023-04-25T23:25:40.948Z,1.65
2023-04-25T23:28:32.733Z,2.80
2023-04-25T23:31:06.355Z,1.95
2023-04-25T23:33:37.020Z,1.83
2023-04-25T23:36:07.492Z,2.22
2023-04-25T23:38:36.485Z,1.40
2023-04-25T23:41:05.429Z,2.10
2023-04-25T23:43:34.363Z,1.40
2023-04-25T23:46:03.352Z,2.00
2023-04-25T23:48:32.237Z,1.70
2023-04-25T23:51:02.553Z,1.30
2023-04-25T23:53:36.983Z,1.65
2023-04-25T23:56:06.518Z,3.15
2023-04-25T23:58:35.508Z,1.98
